Time;durP1;ratioP1;P1;durP2;ratioP2;P2;SDS_P1;SDS_P2;PMS_P1;PMS_P2;Temp;Humidity;BMP_temperature;BMP_pressure;BME280_temperature;BME280_humidity;BME280_pressure;Samples;Min_cycle;Max_cycle;Signal;HPM_P1;HPM_P2
2023/08/08 00:02:00;;;;;;;34.78;3.80;;;;;;;;;;5041499;28;20052;-76
2023/08/08 00:04:30;;;;;;;23.67;2.88;;;;;;;;;;5042083;28;20432;-75
2023/08/08 00:07:01;;;;;;;27.77;3.67;;;;;;;;;;5055657;28;20040;-76
2023/08/08 00:09:32;;;;;;;25.20;3.75;;;;;;;;;;5080446;28;20044;-74
2023/08/08 00:12:03;;;;;;;23.73;3.10;;;;;;;;;;5082933;28;20036;-75
2023/08/08 00:14:35;;;;;;;24.50;3.78;;;;;;;;;;5083395;28;20426;-75
2023/08/08 00:17:06;;;;;;;23.98;3.92;;;;;;;;;;5083746;28;20048;-74
2023/08/08 00:19:38;;;;;;;22.90;3.00;;;;;;;;;;5081718;28;20063;-75
2023/08/08 00:22:08;;;;;;;29.95;2.65;;;;;;;;;;5082360;28;20063;-76
2023/08/08 00:24:39;;;;;;;26.08;3.38;;;;;;;;;;5082774;28;20054;-75
2023/08/08 00:27:08;;;;;;;28.58;3.50;;;;;;;;;;5082719;28;20048;-75
2023/08/08 00:29:40;;;;;;;27.23;2.85;;;;;;;;;;5082634;28;20052;-75
2023/08/08 00:32:13;;;;;;;26.13;3.10;;;;;;;;;;5081702;28;20052;-75
2023/08/08 00:34:44;;;;;;;27.67;3.63;;;;;;;;;;5083522;28;20054;-77
2023/08/08 00:37:14;;;;;;;29.63;2.97;;;;;;;;;;5082931;28;20507;-75
2023/08/08 00:39:46;;;;;;;22.27;3.42;;;;;;;;;;5081600;28;20048;-77
2023/08/08 00:42:16;;;;;;;28.30;2.95;;;;;;;;;;5083131;28;20044;-75
2023/08/08 00:44:48;;;;;;;27.48;3.70;;;;;;;;;;5083287;28;20048;-75
2023/08/08 00:47:18;;;;;;;31.10;2.70;;;;;;;;;;5082323;28;20044;-76
2023/08/08 00:49:49;;;;;;;22.48;2.85;;;;;;;;;;5083253;28;20044;-75
2023/08/08 00:52:21;;;;;;;34.88;3.00;;;;;;;;;;5080833;28;20036;-76
2023/08/08 00:54:53;;;;;;;19.88;2.58;;;;;;;;;;5062275;28;20059;-76
2023/08/08 00:57:23;;;;;;;31.85;2.72;;;;;;;;;;5062427;28;20047;-75
2023/08/08 00:59:54;;;;;;;16.38;2.78;;;;;;;;;;5062022;28;20040;-75
2023/08/08 01:02:25;;;;;;;31.73;3.80;;;;;;;;;;5061845;28;20537;-76
2023/08/08 01:04:56;;;;;;;26.40;3.00;;;;;;;;;;5062248;28;20048;-76
2023/08/08 01:08:07;;;;;;;33.58;3.50;;;;;;;;;;5060280;28;20057;-74
2023/08/08 01:10:42;;;;;;;39.92;3.75;;;;;;;;;;5062629;28;20063;-75
2023/08/08 01:13:23;;;;;;;26.35;3.25;;;;;;;;;;5061422;28;20055;-77
2023/08/08 01:15:57;;;;;;;29.98;2.97;;;;;;;;;;5060602;28;20045;-76
2023/08/08 01:18:32;;;;;;;28.10;3.67;;;;;;;;;;5059427;28;20056;-76
2023/08/08 01:21:04;;;;;;;21.42;3.10;;;;;;;;;;5061601;28;20075;-76
2023/08/08 01:24:02;;;;;;;34.08;3.60;;;;;;;;;;5059981;28;20082;-75
2023/08/08 01:26:33;;;;;;;21.67;2.38;;;;;;;;;;5061645;28;20057;-75
2023/08/08 01:29:03;;;;;;;24.95;2.88;;;;;;;;;;5060504;28;20052;-75
2023/08/08 01:31:34;;;;;;;29.42;3.38;;;;;;;;;;5061779;28;20583;-75
2023/08/08 01:34:06;;;;;;;18.50;2.45;;;;;;;;;;5061541;28;20049;-75
2023/08/08 01:36:55;;;;;;;34.80;3.10;;;;;;;;;;5059713;28;20765;-75
2023/08/08 01:39:29;;;;;;;22.33;2.47;;;;;;;;;;5062146;28;20059;-76
2023/08/08 01:42:01;;;;;;;26.70;3.08;;;;;;;;;;5060164;28;20404;-76
2023/08/08 01:44:34;;;;;;;22.05;2.58;;;;;;;;;;5059652;28;20057;-75
2023/08/08 01:47:05;;;;;;;35.30;3.45;;;;;;;;;;5044362;28;20048;-76
2023/08/08 01:49:36;;;;;;;26.33;3.63;;;;;;;;;;5060046;28;20049;-75
2023/08/08 01:52:09;;;;;;;21.33;2.67;;;;;;;;;;5061593;28;20053;-74
2023/08/08 01:54:42;;;;;;;23.10;2.92;;;;;;;;;;5061689;28;20499;-74
2023/08/08 01:57:14;;;;;;;36.03;3.80;;;;;;;;;;5062220;28;20052;-75
2023/08/08 01:59:46;;;;;;;22.73;2.20;;;;;;;;;;5059489;28;20071;-74
2023/08/08 02:02:17;;;;;;;21.48;3.17;;;;;;;;;;5059845;28;20052;-75
2023/08/08 02:04:49;;;;;;;20.00;3.00;;;;;;;;;;5061280;28;20048;-74
2023/08/08 02:07:20;;;;;;;31.50;3.72;;;;;;;;;;5060946;28;20041;-74
2023/08/08 02:09:50;;;;;;;20.85;3.15;;;;;;;;;;5060179;28;20728;-74
2023/08/08 02:12:21;;;;;;;21.40;2.75;;;;;;;;;;5059689;28;20048;-75
2023/08/08 02:14:53;;;;;;;23.23;2.75;;;;;;;;;;5061314;28;20049;-75
2023/08/08 02:17:26;;;;;;;25.98;3.45;;;;;;;;;;5060947;28;20079;-76
2023/08/08 02:19:57;;;;;;;23.98;3.33;;;;;;;;;;5060184;28;20639;-74
2023/08/08 02:22:29;;;;;;;26.63;2.90;;;;;;;;;;5059065;28;20056;-75
2023/08/08 02:25:00;;;;;;;32.80;3.15;;;;;;;;;;5060771;28;20048;-76
2023/08/08 02:27:32;;;;;;;23.58;2.95;;;;;;;;;;5059957;28;20060;-75
2023/08/08 02:30:01;;;;;;;;;;;;;;;;;;5062199;28;20048;-75
2023/08/08 02:32:32;;;;;;;24.02;3.13;;;;;;;;;;5066645;28;19924;-74
2023/08/08 02:35:03;;;;;;;20.75;2.38;;;;;;;;;;5064830;28;20055;-75
2023/08/08 02:37:35;;;;;;;24.60;2.67;;;;;;;;;;5064452;28;20051;-75
2023/08/08 02:40:07;;;;;;;23.30;2.58;;;;;;;;;;5062783;28;20056;-76
2023/08/08 02:42:38;;;;;;;17.80;2.20;;;;;;;;;;5064735;28;20041;-76
2023/08/08 02:45:11;;;;;;;23.50;2.70;;;;;;;;;;5063227;28;20535;-75
2023/08/08 02:47:41;;;;;;;16.27;2.45;;;;;;;;;;5065055;28;20411;-75
2023/08/08 02:50:11;;;;;;;19.13;2.38;;;;;;;;;;5063365;28;20052;-75
2023/08/08 02:52:41;;;;;;;21.63;2.83;;;;;;;;;;5064356;28;20052;-76
2023/08/08 02:55:13;;;;;;;21.17;2.15;;;;;;;;;;5062534;28;20053;-76
2023/08/08 02:57:49;;;;;;;17.67;2.75;;;;;;;;;;5063183;28;20053;-76
2023/08/08 03:00:20;;;;;;;20.83;2.35;;;;;;;;;;5062419;28;20041;-76
2023/08/08 03:02:54;;;;;;;17.70;2.03;;;;;;;;;;5062701;28;20553;-75
2023/08/08 03:05:25;;;;;;;16.65;3.00;;;;;;;;;;5063433;28;20064;-74
2023/08/08 03:07:56;;;;;;;19.15;2.40;;;;;;;;;;5064660;28;20506;-76
2023/08/08 03:10:28;;;;;;;12.45;1.80;;;;;;;;;;5062691;28;20508;-76
2023/08/08 03:12:58;;;;;;;27.50;3.58;;;;;;;;;;5063113;28;20052;-75
2023/08/08 03:15:30;;;;;;;22.83;1.95;;;;;;;;;;5064583;28;20059;-75
2023/08/08 03:18:04;;;;;;;19.63;2.67;;;;;;;;;;5061932;28;20377;-75
2023/08/08 03:20:35;;;;;;;27.70;3.17;;;;;;;;;;5062057;28;20060;-76
2023/08/08 03:23:09;;;;;;;20.92;2.67;;;;;;;;;;5061715;28;20052;-75
2023/08/08 03:25:42;;;;;;;18.67;2.50;;;;;;;;;;5062479;28;20060;-75
2023/08/08 03:28:15;;;;;;;19.35;2.63;;;;;;;;;;5062199;28;20056;-75
2023/08/08 03:30:46;;;;;;;16.73;2.17;;;;;;;;;;5062094;28;20487;-75
2023/08/08 03:33:16;;;;;;;22.40;2.80;;;;;;;;;;5063847;28;20542;-75
2023/08/08 03:35:48;;;;;;;22.58;2.88;;;;;;;;;;5061850;28;20356;-75
2023/08/08 03:38:19;;;;;;;18.85;2.67;;;;;;;;;;5062650;28;20056;-75
2023/08/08 03:40:51;;;;;;;19.02;3.95;;;;;;;;;;5064547;28;20059;-76
2023/08/08 03:43:22;;;;;;;21.65;4.20;;;;;;;;;;5062090;28;20052;-75
2023/08/08 03:45:52;;;;;;;24.55;4.00;;;;;;;;;;5061920;28;20061;-75
2023/08/08 03:48:25;;;;;;;17.50;2.88;;;;;;;;;;5062050;28;20139;-75
2023/08/08 03:50:57;;;;;;;23.33;3.35;;;;;;;;;;5062253;28;20061;-75
2023/08/08 03:53:27;;;;;;;25.65;2.97;;;;;;;;;;5062734;28;20621;-75
2023/08/08 03:55:58;;;;;;;30.77;3.22;;;;;;;;;;5061896;28;20114;-75
2023/08/08 03:58:28;;;;;;;20.30;2.47;;;;;;;;;;5061428;28;20056;-75
2023/08/08 04:01:00;;;;;;;19.38;2.30;;;;;;;;;;5061095;28;20511;-76
2023/08/08 04:03:30;;;;;;;19.80;2.70;;;;;;;;;;5062478;28;20052;-75
2023/08/08 04:06:05;;;;;;;18.25;2.53;;;;;;;;;;5063678;28;20222;-76
2023/08/08 04:08:36;;;;;;;24.67;3.10;;;;;;;;;;5060888;28;20061;-76
2023/08/08 04:11:08;;;;;;;14.15;2.53;;;;;;;;;;5060976;28;20534;-75
2023/08/08 04:13:39;;;;;;;15.38;2.33;;;;;;;;;;5063552;28;20534;-76
2023/08/08 04:16:09;;;;;;;15.30;2.33;;;;;;;;;;5061278;28;20504;-75
2023/08/08 04:18:40;;;;;;;19.45;2.42;;;;;;;;;;5063370;28;20525;-75
2023/08/08 04:21:17;;;;;;;16.67;2.15;;;;;;;;;;5063239;28;20049;-75
2023/08/08 04:23:54;;;;;;;23.40;2.90;;;;;;;;;;5062411;28;20052;-75
2023/08/08 04:26:25;;;;;;;20.00;2.40;;;;;;;;;;5062118;28;20524;-75
2023/08/08 04:28:57;;;;;;;17.10;2.10;;;;;;;;;;5062670;28;20041;-74
2023/08/08 04:31:27;;;;;;;19.30;2.55;;;;;;;;;;5062937;28;20067;-75
2023/08/08 04:34:00;;;;;;;12.90;1.90;;;;;;;;;;5062152;28;20048;-75
2023/08/08 04:36:31;;;;;;;20.23;2.08;;;;;;;;;;5061860;28;20048;-75
2023/08/08 04:39:01;;;;;;;23.48;2.35;;;;;;;;;;5062998;28;20045;-75
2023/08/08 04:41:33;;;;;;;19.05;2.65;;;;;;;;;;5062482;28;20048;-76
2023/08/08 04:44:04;;;;;;;18.30;2.33;;;;;;;;;;5062862;28;20048;-75
2023/08/08 04:46:34;;;;;;;23.23;1.92;;;;;;;;;;5061349;28;20449;-75
2023/08/08 04:49:04;;;;;;;19.75;2.05;;;;;;;;;;5062277;28;20052;-75
2023/08/08 04:51:35;;;;;;;27.35;3.08;;;;;;;;;;5062221;28;20040;-76
2023/08/08 04:54:05;;;;;;;14.63;1.80;;;;;;;;;;5062762;28;20044;-75
2023/08/08 04:56:36;;;;;;;18.92;2.25;;;;;;;;;;5062555;28;20040;-76
2023/08/08 04:59:05;;;;;;;13.88;2.83;;;;;;;;;;5061887;28;20044;-75
2023/08/08 05:01:37;;;;;;;19.83;2.10;;;;;;;;;;5062800;28;20048;-75
2023/08/08 05:04:07;;;;;;;11.40;1.58;;;;;;;;;;5061663;28;20493;-75
2023/08/08 05:06:38;;;;;;;12.95;1.63;;;;;;;;;;5062419;28;20052;-74
2023/08/08 05:09:09;;;;;;;21.33;2.13;;;;;;;;;;5061949;28;20044;-75
2023/08/08 05:11:39;;;;;;;16.92;2.20;;;;;;;;;;5061961;28;20044;-74
2023/08/08 05:14:10;;;;;;;17.00;2.22;;;;;;;;;;5061942;28;20483;-76
2023/08/08 05:16:41;;;;;;;12.68;1.73;;;;;;;;;;5061506;28;20048;-75
2023/08/08 05:19:11;;;;;;;12.02;2.13;;;;;;;;;;5062594;28;20503;-75
2023/08/08 05:21:43;;;;;;;12.88;1.65;;;;;;;;;;5061442;28;20059;-74
2023/08/08 05:24:13;;;;;;;26.15;2.72;;;;;;;;;;5059255;28;20625;-75
2023/08/08 05:26:44;;;;;;;15.75;1.73;;;;;;;;;;5061821;28;20056;-75
2023/08/08 05:29:14;;;;;;;15.48;1.88;;;;;;;;;;5061830;28;20048;-76
2023/08/08 05:31:44;;;;;;;24.10;2.20;;;;;;;;;;5062169;28;20423;-75
2023/08/08 05:34:15;;;;;;;8.43;1.35;;;;;;;;;;5059621;28;20566;-76
2023/08/08 05:36:46;;;;;;;23.98;1.83;;;;;;;;;;5062042;28;20439;-75
2023/08/08 05:39:33;;;;;;;17.42;2.35;;;;;;;;;;5059274;28;20064;-75
2023/08/08 05:42:03;;;;;;;18.95;1.92;;;;;;;;;;5061304;28;20071;-75
2023/08/08 05:44:35;;;;;;;16.67;1.95;;;;;;;;;;5061451;28;21091;-76
2023/08/08 05:47:07;;;;;;;11.20;1.63;;;;;;;;;;5061215;28;20044;-75
2023/08/08 05:49:42;;;;;;;25.45;2.65;;;;;;;;;;5062180;28;20044;-75
2023/08/08 05:52:12;;;;;;;14.48;1.85;;;;;;;;;;5062020;28;20630;-75
2023/08/08 05:54:43;;;;;;;15.95;1.67;;;;;;;;;;5061791;28;20044;-75
2023/08/08 05:57:13;;;;;;;18.00;2.03;;;;;;;;;;5061598;28;20055;-77
2023/08/08 05:59:45;;;;;;;11.88;1.65;;;;;;;;;;5061320;28;20523;-75
2023/08/08 06:02:15;;;;;;;12.18;1.42;;;;;;;;;;5062275;28;20456;-75
2023/08/08 06:04:46;;;;;;;14.40;2.05;;;;;;;;;;5060074;28;20051;-75
2023/08/08 06:07:17;;;;;;;17.00;1.92;;;;;;;;;;5064748;28;20044;-75
2023/08/08 06:09:48;;;;;;;14.40;1.75;;;;;;;;;;5064132;28;20048;-76
2023/08/08 06:12:18;;;;;;;19.50;1.73;;;;;;;;;;5065608;28;20048;-75
2023/08/08 06:14:49;;;;;;;12.98;1.75;;;;;;;;;;5065737;28;20056;-76
2023/08/08 06:17:20;;;;;;;15.65;1.42;;;;;;;;;;5065183;28;20525;-75
2023/08/08 06:19:51;;;;;;;9.93;1.20;;;;;;;;;;5065338;28;20044;-75
2023/08/08 06:22:21;;;;;;;14.75;2.63;;;;;;;;;;5065737;28;20430;-75
2023/08/08 06:24:53;;;;;;;17.08;1.73;;;;;;;;;;5065957;28;20052;-75
2023/08/08 06:27:26;;;;;;;20.08;1.90;;;;;;;;;;5064956;28;20173;-76
2023/08/08 06:29:58;;;;;;;12.93;2.15;;;;;;;;;;5064750;28;20049;-77
2023/08/08 06:32:29;;;;;;;18.20;2.10;;;;;;;;;;5065045;28;20519;-75
2023/08/08 06:35:01;;;;;;;13.52;1.75;;;;;;;;;;5064651;28;20043;-76
2023/08/08 06:37:32;;;;;;;13.90;1.55;;;;;;;;;;5063375;28;20056;-76
2023/08/08 06:40:03;;;;;;;11.43;1.92;;;;;;;;;;5064814;28;20048;-76
2023/08/08 06:42:33;;;;;;;15.93;2.05;;;;;;;;;;5064763;28;20052;-75
2023/08/08 06:45:04;;;;;;;14.32;1.95;;;;;;;;;;5062659;28;20495;-76
2023/08/08 06:47:36;;;;;;;12.60;1.63;;;;;;;;;;5065091;28;20045;-76
2023/08/08 06:50:08;;;;;;;15.32;1.75;;;;;;;;;;5065012;28;20048;-75
2023/08/08 06:52:38;;;;;;;14.90;1.70;;;;;;;;;;5064297;28;20044;-75
2023/08/08 06:55:11;;;;;;;9.55;1.73;;;;;;;;;;5064579;28;20052;-77
2023/08/08 06:57:41;;;;;;;14.90;2.00;;;;;;;;;;5064437;28;20048;-76
2023/08/08 07:00:13;;;;;;;12.52;1.63;;;;;;;;;;5064726;28;20052;-77
2023/08/08 07:02:44;;;;;;;12.05;1.65;;;;;;;;;;5064912;28;20824;-75
2023/08/08 07:05:14;;;;;;;14.50;1.63;;;;;;;;;;5065404;28;20040;-75
2023/08/08 07:07:46;;;;;;;12.13;1.70;;;;;;;;;;5065063;28;20115;-76
2023/08/08 07:10:16;;;;;;;12.80;1.27;;;;;;;;;;5064193;28;20051;-75
2023/08/08 07:12:46;;;;;;;11.18;1.42;;;;;;;;;;5064206;28;20053;-76
2023/08/08 07:15:17;;;;;;;10.20;0.98;;;;;;;;;;5064285;28;20044;-75
2023/08/08 07:17:47;;;;;;;12.85;1.30;;;;;;;;;;5064077;28;20048;-76
2023/08/08 07:20:19;;;;;;;15.18;1.73;;;;;;;;;;5063531;28;20063;-75
2023/08/08 07:22:50;;;;;;;16.90;1.77;;;;;;;;;;5063684;28;20044;-75
2023/08/08 07:25:20;;;;;;;13.10;1.50;;;;;;;;;;5064539;28;20040;-76
2023/08/08 07:27:52;;;;;;;13.27;1.35;;;;;;;;;;5064061;28;20499;-75
2023/08/08 07:30:23;;;;;;;17.10;1.88;;;;;;;;;;5064395;28;20037;-75
2023/08/08 07:32:54;;;;;;;14.95;2.05;;;;;;;;;;5063764;28;20049;-74
2023/08/08 07:35:23;;;;;;;17.08;2.42;;;;;;;;;;5063699;28;20056;-75
2023/08/08 07:37:55;;;;;;;9.55;1.42;;;;;;;;;;5062250;28;20523;-74
2023/08/08 07:40:27;;;;;;;21.35;1.63;;;;;;;;;;5064492;28;20534;-75
2023/08/08 07:42:57;;;;;;;8.32;1.52;;;;;;;;;;5064011;28;20040;-74
2023/08/08 07:45:27;;;;;;;17.33;1.45;;;;;;;;;;5064031;28;20529;-74
2023/08/08 07:47:58;;;;;;;10.95;1.33;;;;;;;;;;5062791;28;20427;-76
2023/08/08 07:50:29;;;;;;;16.13;1.67;;;;;;;;;;5063589;28;20416;-75
2023/08/08 07:53:00;;;;;;;7.47;1.30;;;;;;;;;;5063482;28;20510;-75
2023/08/08 07:55:30;;;;;;;13.48;1.38;;;;;;;;;;5061780;28;20056;-74
2023/08/08 07:58:00;;;;;;;15.00;1.60;;;;;;;;;;5063464;28;20220;-76
2023/08/08 08:00:31;;;;;;;17.23;1.90;;;;;;;;;;5063240;28;20053;-75
2023/08/08 08:03:02;;;;;;;10.32;1.67;;;;;;;;;;5063556;28;20605;-76
2023/08/08 08:05:34;;;;;;;16.67;1.60;;;;;;;;;;5063011;28;20051;-75
2023/08/08 08:08:05;;;;;;;14.20;1.70;;;;;;;;;;5061548;28;20052;-75
2023/08/08 08:10:35;;;;;;;13.27;1.27;;;;;;;;;;5064129;28;20048;-76
2023/08/08 08:13:07;;;;;;;15.15;1.90;;;;;;;;;;5062746;28;20071;-75
2023/08/08 08:15:39;;;;;;;29.52;2.70;;;;;;;;;;5063102;28;20534;-75
2023/08/08 08:18:12;;;;;;;14.63;1.55;;;;;;;;;;5063215;28;20040;-76
2023/08/08 08:20:44;;;;;;;11.82;1.83;;;;;;;;;;5063864;28;20063;-75
2023/08/08 08:23:16;;;;;;;18.00;1.80;;;;;;;;;;5062831;28;20396;-74
2023/08/08 08:25:48;;;;;;;18.98;1.95;;;;;;;;;;5062268;28;20036;-75
2023/08/08 08:28:19;;;;;;;14.10;1.35;;;;;;;;;;5062273;28;20072;-75
2023/08/08 08:30:49;;;;;;;16.77;1.92;;;;;;;;;;5062551;28;21104;-75
2023/08/08 08:33:20;;;;;;;12.05;1.63;;;;;;;;;;5062838;28;20119;-75
2023/08/08 08:35:51;;;;;;;7.05;1.33;;;;;;;;;;5062328;28;20036;-75
2023/08/08 08:38:21;;;;;;;10.13;1.65;;;;;;;;;;5062322;28;20538;-75
2023/08/08 08:40:54;;;;;;;11.80;2.92;;;;;;;;;;5062651;28;20048;-75
2023/08/08 08:43:24;;;;;;;13.50;1.60;;;;;;;;;;5062486;28;20052;-75
2023/08/08 08:45:58;;;;;;;15.55;1.55;;;;;;;;;;5062915;28;20115;-76
2023/08/08 08:48:31;;;;;;;11.45;1.42;;;;;;;;;;5062031;28;20424;-75
2023/08/08 08:51:02;;;;;;;10.70;1.45;;;;;;;;;;5061605;28;20048;-75
2023/08/08 08:53:39;;;;;;;11.15;1.48;;;;;;;;;;5061391;28;20040;-74
2023/08/08 08:56:10;;;;;;;12.68;2.05;;;;;;;;;;5062854;28;20335;-75
2023/08/08 08:58:41;;;;;;;6.32;1.30;;;;;;;;;;5062672;28;20048;-75
2023/08/08 09:01:13;;;;;;;8.75;1.30;;;;;;;;;;5062635;28;20044;-75
2023/08/08 09:03:45;;;;;;;12.95;1.33;;;;;;;;;;5062467;28;20056;-75
2023/08/08 09:06:19;;;;;;;8.13;1.42;;;;;;;;;;5062055;28;20055;-75
2023/08/08 09:08:49;;;;;;;7.82;1.55;;;;;;;;;;5061567;28;20071;-75
2023/08/08 09:11:31;;;;;;;6.50;1.83;;;;;;;;;;5061737;28;20411;-75
2023/08/08 09:14:02;;;;;;;8.43;1.27;;;;;;;;;;5061940;28;20044;-75
2023/08/08 09:16:33;;;;;;;18.55;1.85;;;;;;;;;;5062422;28;20044;-75
2023/08/08 09:19:04;;;;;;;8.75;1.33;;;;;;;;;;5061693;28;20052;-75
2023/08/08 09:21:34;;;;;;;11.98;1.23;;;;;;;;;;5061627;28;20447;-75
2023/08/08 09:24:06;;;;;;;15.35;1.63;;;;;;;;;;5061873;28;20063;-75
2023/08/08 09:26:36;;;;;;;11.45;1.35;;;;;;;;;;5060631;28;20052;-75
2023/08/08 09:29:08;;;;;;;7.00;1.17;;;;;;;;;;5062146;28;20365;-74
2023/08/08 09:31:39;;;;;;;15.70;1.70;;;;;;;;;;5060744;28;20053;-74
2023/08/08 09:34:10;;;;;;;13.00;1.33;;;;;;;;;;5062119;28;20067;-75
2023/08/08 09:36:48;;;;;;;16.33;2.25;;;;;;;;;;5062422;28;20052;-77
2023/08/08 09:39:21;;;;;;;14.07;1.65;;;;;;;;;;5061263;28;20052;-76
2023/08/08 09:41:52;;;;;;;8.63;1.10;;;;;;;;;;5060370;28;20070;-81
2023/08/08 09:44:29;;;;;;;10.13;1.77;;;;;;;;;;5061591;28;20060;-76
2023/08/08 09:47:01;;;;;;;5.85;1.00;;;;;;;;;;5061598;28;20044;-77
2023/08/08 09:49:34;;;;;;;10.85;1.55;;;;;;;;;;5062428;28;20047;-80
2023/08/08 09:52:06;;;;;;;10.65;1.42;;;;;;;;;;5061616;28;20056;-75
2023/08/08 09:54:39;;;;;;;12.48;1.38;;;;;;;;;;5061723;28;20034;-75
2023/08/08 09:57:11;;;;;;;6.50;1.20;;;;;;;;;;5060911;28;20525;-76
2023/08/08 09:59:42;;;;;;;15.95;1.40;;;;;;;;;;5062302;28;20064;-76
2023/08/08 10:02:17;;;;;;;14.40;1.90;;;;;;;;;;5062098;28;20049;-75
2023/08/08 10:04:48;;;;;;;12.05;1.58;;;;;;;;;;5061349;28;20103;-76
2023/08/08 10:07:19;;;;;;;5.03;1.02;;;;;;;;;;5059709;28;20098;-75
2023/08/08 10:09:50;;;;;;;7.93;1.10;;;;;;;;;;5061033;28;20056;-75
2023/08/08 10:12:24;;;;;;;7.57;1.05;;;;;;;;;;5061977;28;20040;-76
2023/08/08 10:14:56;;;;;;;19.05;1.70;;;;;;;;;;5060110;28;20051;-74
2023/08/08 10:17:27;;;;;;;11.68;1.08;;;;;;;;;;5061006;28;20045;-77
2023/08/08 10:19:59;;;;;;;9.50;1.33;;;;;;;;;;5060354;28;20052;-75
2023/08/08 10:22:38;;;;;;;12.45;1.45;;;;;;;;;;5045029;28;20049;-78
2023/08/08 10:25:27;;;;;;;10.32;1.75;;;;;;;;;;5061219;28;20055;-75
2023/08/08 10:28:03;;;;;;;;;;;;;;;;;;5059463;28;20436;-76
2023/08/08 10:30:53;;;;;;;7.93;1.02;;;;;;;;;;5060122;28;19924;-81
2023/08/08 10:33:27;;;;;;;12.25;1.48;;;;;;;;;;5060454;28;20047;-76
2023/08/08 10:36:09;;;;;;;10.98;1.45;;;;;;;;;;5060802;28;20056;-80
2023/08/08 10:38:50;;;;;;;8.13;1.27;;;;;;;;;;5061182;28;20053;-76
2023/08/08 10:41:26;;;;;;;15.65;1.40;;;;;;;;;;5060823;28;20060;-76
2023/08/08 10:43:58;;;;;;;17.70;1.92;;;;;;;;;;5061697;28;20060;-76
2023/08/08 10:46:33;;;;;;;10.15;1.00;;;;;;;;;;5060101;28;20048;-76
2023/08/08 10:49:06;;;;;;;2.95;0.90;;;;;;;;;;5061586;28;20056;-75
2023/08/08 10:51:46;;;;;;;9.85;1.23;;;;;;;;;;5061256;28;20044;-75
2023/08/08 10:54:23;;;;;;;6.65;1.15;;;;;;;;;;5064919;28;20048;-76
2023/08/08 10:56:59;;;;;;;11.77;1.40;;;;;;;;;;5064208;28;20053;-76
2023/08/08 10:59:39;;;;;;;11.35;1.27;;;;;;;;;;5062747;28;20063;-76
2023/08/08 11:02:10;;;;;;;4.47;0.98;;;;;;;;;;5064397;28;20048;-76
2023/08/08 11:04:41;;;;;;;6.50;1.58;;;;;;;;;;5062992;28;20045;-76
2023/08/08 11:07:15;;;;;;;6.75;0.93;;;;;;;;;;5064093;28;20505;-76
2023/08/08 11:09:46;;;;;;;11.90;1.05;;;;;;;;;;5064395;28;20049;-76
2023/08/08 11:12:20;;;;;;;5.85;1.30;;;;;;;;;;5062681;28;20533;-81
2023/08/08 11:14:51;;;;;;;8.35;1.52;;;;;;;;;;5064344;28;20048;-79
2023/08/08 11:17:21;;;;;;;8.63;1.65;;;;;;;;;;5064953;28;20048;-75
2023/08/08 11:19:52;;;;;;;7.25;1.08;;;;;;;;;;5063502;28;20052;-76
2023/08/08 11:22:23;;;;;;;6.22;1.10;;;;;;;;;;5064175;28;20059;-75
2023/08/08 11:24:57;;;;;;;13.77;1.33;;;;;;;;;;5064589;28;20495;-77
2023/08/08 11:27:28;;;;;;;10.75;1.30;;;;;;;;;;5062226;28;20048;-76
2023/08/08 11:30:02;;;;;;;10.02;1.48;;;;;;;;;;5063137;28;20040;-76
2023/08/08 11:32:36;;;;;;;6.45;1.13;;;;;;;;;;5063909;28;20398;-74
2023/08/08 11:35:07;;;;;;;9.38;0.90;;;;;;;;;;5060604;28;20660;-74
2023/08/08 11:37:38;;;;;;;7.10;0.98;;;;;;;;;;5063970;28;20044;-78
2023/08/08 11:40:10;;;;;;;6.63;0.98;;;;;;;;;;5061982;28;20056;-76
2023/08/08 11:42:42;;;;;;;10.25;1.75;;;;;;;;;;5063289;28;20048;-74
2023/08/08 11:45:16;;;;;;;12.55;1.45;;;;;;;;;;5062095;28;20122;-75
2023/08/08 11:47:53;;;;;;;12.32;1.17;;;;;;;;;;5062395;28;20419;-75
2023/08/08 11:50:27;;;;;;;16.60;1.88;;;;;;;;;;5063694;28;20525;-75
2023/08/08 11:53:01;;;;;;;10.85;1.58;;;;;;;;;;5063345;28;20047;-78
2023/08/08 11:55:33;;;;;;;9.13;1.30;;;;;;;;;;5061347;28;20053;-75
2023/08/08 11:58:05;;;;;;;8.73;1.17;;;;;;;;;;5063456;28;20044;-76
2023/08/08 12:00:36;;;;;;;8.40;1.20;;;;;;;;;;5062992;28;20049;-75
2023/08/08 12:03:11;;;;;;;5.40;0.80;;;;;;;;;;5062154;28;20052;-75
2023/08/08 12:05:41;;;;;;;9.80;1.42;;;;;;;;;;5063702;28;20052;-75
2023/08/08 12:08:12;;;;;;;9.00;1.23;;;;;;;;;;5061296;28;20048;-74
2023/08/08 12:10:53;;;;;;;9.38;1.73;;;;;;;;;;5064290;28;20110;-75
2023/08/08 12:13:28;;;;;;;6.22;0.85;;;;;;;;;;5063279;28;20041;-75
2023/08/08 12:15:59;;;;;;;9.05;1.60;;;;;;;;;;5062510;28;20051;-78
2023/08/08 12:18:30;;;;;;;8.40;1.30;;;;;;;;;;5062413;28;20048;-76
2023/08/08 12:21:01;;;;;;;14.60;1.58;;;;;;;;;;5062905;28;20057;-77
2023/08/08 12:23:34;;;;;;;10.38;1.55;;;;;;;;;;5062813;28;20045;-79
2023/08/08 12:26:06;;;;;;;5.85;1.25;;;;;;;;;;5043558;28;20049;-78
2023/08/08 12:28:38;;;;;;;7.40;1.05;;;;;;;;;;5042878;28;20060;-77
2023/08/08 12:31:08;;;;;;;6.95;1.13;;;;;;;;;;5042019;28;20063;-76
2023/08/08 12:33:40;;;;;;;7.55;0.93;;;;;;;;;;5042433;28;20499;-76
2023/08/08 12:36:10;;;;;;;5.13;0.90;;;;;;;;;;5042532;28;20053;-77
2023/08/08 12:38:42;;;;;;;6.18;0.90;;;;;;;;;;5041797;28;20504;-76
2023/08/08 12:41:13;;;;;;;8.82;1.35;;;;;;;;;;5045090;28;20049;-78
2023/08/08 12:43:46;;;;;;;6.57;1.00;;;;;;;;;;5042977;28;20045;-78
2023/08/08 12:46:17;;;;;;;5.95;1.02;;;;;;;;;;5042955;28;20500;-78
2023/08/08 12:48:48;;;;;;;4.68;0.75;;;;;;;;;;5042389;28;20045;-77
2023/08/08 12:51:19;;;;;;;9.05;1.40;;;;;;;;;;5042363;28;20053;-74
2023/08/08 12:53:51;;;;;;;7.38;1.10;;;;;;;;;;5041901;28;20512;-76
2023/08/08 12:56:22;;;;;;;4.22;0.77;;;;;;;;;;5041500;28;20040;-77
2023/08/08 12:58:53;;;;;;;6.90;1.02;;;;;;;;;;5043014;28;20048;-76
2023/08/08 13:01:25;;;;;;;6.80;1.38;;;;;;;;;;5042755;28;20251;-78
2023/08/08 13:03:56;;;;;;;6.40;1.20;;;;;;;;;;5041944;28;20534;-78
2023/08/08 13:06:47;;;;;;;5.47;1.20;;;;;;;;;;5042130;28;20045;-76
2023/08/08 13:09:18;;;;;;;7.47;1.15;;;;;;;;;;5043527;28;20053;-75
2023/08/08 13:11:48;;;;;;;12.80;1.60;;;;;;;;;;5042199;28;20048;-74
2023/08/08 13:14:20;;;;;;;3.35;0.65;;;;;;;;;;5042287;28;20059;-74
2023/08/08 13:16:51;;;;;;;9.75;1.45;;;;;;;;;;5042829;28;20051;-72
2023/08/08 13:19:24;;;;;;;4.68;0.88;;;;;;;;;;5041858;28;20053;-74
2023/08/08 13:21:56;;;;;;;20.08;2.38;;;;;;;;;;5040087;28;20060;-76
2023/08/08 13:24:26;;;;;;;6.05;1.15;;;;;;;;;;5041386;28;20060;-74
2023/08/08 13:26:57;;;;;;;5.10;1.08;;;;;;;;;;5041673;28;20500;-79
2023/08/08 13:29:29;;;;;;;3.50;1.00;;;;;;;;;;5041112;28;20180;-75
2023/08/08 13:31:59;;;;;;;7.35;1.42;;;;;;;;;;5041434;28;20044;-74
2023/08/08 13:34:30;;;;;;;7.70;1.30;;;;;;;;;;5040303;28;20052;-75
2023/08/08 13:37:01;;;;;;;6.55;1.00;;;;;;;;;;5042114;28;20060;-76
2023/08/08 13:39:31;;;;;;;7.82;1.38;;;;;;;;;;5042461;28;20040;-74
2023/08/08 13:42:02;;;;;;;8.02;1.08;;;;;;;;;;5041979;28;20041;-76
2023/08/08 13:44:32;;;;;;;4.93;1.08;;;;;;;;;;5039671;28;20049;-74
2023/08/08 13:47:03;;;;;;;6.30;1.02;;;;;;;;;;5039966;28;20052;-74
2023/08/08 13:49:35;;;;;;;7.40;1.20;;;;;;;;;;5040344;28;20059;-73
2023/08/08 13:52:07;;;;;;;8.30;1.20;;;;;;;;;;5041256;28;20064;-73
2023/08/08 13:54:37;;;;;;;6.28;1.08;;;;;;;;;;5041463;28;20040;-77
2023/08/08 13:57:08;;;;;;;9.13;1.60;;;;;;;;;;5042117;28;20053;-74
2023/08/08 13:59:39;;;;;;;7.63;1.30;;;;;;;;;;5041925;28;20409;-75
2023/08/08 14:02:10;;;;;;;5.25;1.10;;;;;;;;;;5041374;28;20040;-74
2023/08/08 14:04:40;;;;;;;5.43;1.30;;;;;;;;;;5041315;28;20044;-73
2023/08/08 14:07:11;;;;;;;4.80;1.08;;;;;;;;;;5038843;28;20404;-74
2023/08/08 14:09:42;;;;;;;5.90;0.90;;;;;;;;;;5040374;28;20423;-75
2023/08/08 14:12:12;;;;;;;3.90;0.77;;;;;;;;;;5041303;28;20040;-73
2023/08/08 14:14:43;;;;;;;7.45;1.00;;;;;;;;;;5041229;28;20076;-75
2023/08/08 14:17:13;;;;;;;8.63;1.83;;;;;;;;;;5041427;28;20053;-74
2023/08/08 14:19:44;;;;;;;7.18;1.20;;;;;;;;;;5041521;28;20419;-74
2023/08/08 14:22:14;;;;;;;7.03;0.98;;;;;;;;;;5039153;28;20045;-74
2023/08/08 14:24:45;;;;;;;7.57;1.25;;;;;;;;;;5039327;28;20069;-74
2023/08/08 14:27:15;;;;;;;5.25;0.60;;;;;;;;;;5042802;28;20053;-74
2023/08/08 14:29:46;;;;;;;7.95;1.20;;;;;;;;;;5044791;28;20045;-75
2023/08/08 14:32:17;;;;;;;5.80;1.10;;;;;;;;;;5044163;28;20063;-76
2023/08/08 14:34:48;;;;;;;3.10;0.68;;;;;;;;;;5045458;28;20495;-75
2023/08/08 14:37:20;;;;;;;5.30;0.82;;;;;;;;;;5045140;28;20048;-74
2023/08/08 14:39:50;;;;;;;13.80;0.98;;;;;;;;;;5043307;28;20098;-76
2023/08/08 14:42:21;;;;;;;3.13;0.80;;;;;;;;;;5043558;28;20079;-76
2023/08/08 14:44:52;;;;;;;3.22;0.73;;;;;;;;;;5043368;28;20060;-74
2023/08/08 14:47:32;;;;;;;3.30;0.90;;;;;;;;;;5044833;28;20049;-76
2023/08/08 14:50:04;;;;;;;3.50;0.70;;;;;;;;;;5043357;28;20052;-76
2023/08/08 14:52:35;;;;;;;8.10;1.08;;;;;;;;;;5045317;28;20052;-76
2023/08/08 14:55:07;;;;;;;7.97;1.00;;;;;;;;;;5045576;28;20055;-77
2023/08/08 14:57:39;;;;;;;4.03;1.00;;;;;;;;;;5044647;28;20059;-74
2023/08/08 15:00:12;;;;;;;7.53;1.00;;;;;;;;;;5044220;28;20055;-76
2023/08/08 15:02:43;;;;;;;6.43;0.70;;;;;;;;;;5044916;28;20056;-76